sensor_id;sensor_type;location;lat;lon;timestamp;P1;durP1;ratioP1;P2;durP2;ratioP2
56517;SDS011;42419;48.760;2.322;2023-03-05T00:01:21;32.70;;;16.47;;
56517;SDS011;42419;48.760;2.322;2023-03-05T00:03:52;35.17;;;16.77;;
56517;SDS011;42419;48.760;2.322;2023-03-05T00:06:20;27.17;;;15.00;;
56517;SDS011;42419;48.760;2.322;2023-03-05T00:08:47;32.43;;;15.60;;
56517;SDS011;42419;48.760;2.322;2023-03-05T00:11:12;25.50;;;14.90;;
56517;SDS011;42419;48.760;2.322;2023-03-05T00:13:38;30.00;;;14.50;;
56517;SDS011;42419;48.760;2.322;2023-03-05T00:16:05;27.03;;;14.97;;
56517;SDS011;42419;48.760;2.322;2023-03-05T00:18:33;30.03;;;15.10;;
56517;SDS011;42419;48.760;2.322;2023-03-05T00:20:58;20.00;;;12.67;;
56517;SDS011;42419;48.760;2.322;2023-03-05T00:23:24;23.47;;;13.00;;
56517;SDS011;42419;48.760;2.322;2023-03-05T00:25:49;20.93;;;12.50;;
56517;SDS011;42419;48.760;2.322;2023-03-05T00:28:15;20.40;;;12.10;;
56517;SDS011;42419;48.760;2.322;2023-03-05T00:30:40;24.50;;;12.07;;
56517;SDS011;42419;48.760;2.322;2023-03-05T00:33:06;20.67;;;12.30;;
56517;SDS011;42419;48.760;2.322;2023-03-05T00:35:37;21.50;;;12.17;;
56517;SDS011;42419;48.760;2.322;2023-03-05T00:38:03;16.97;;;10.70;;
56517;SDS011;42419;48.760;2.322;2023-03-05T00:40:28;25.83;;;11.73;;
56517;SDS011;42419;48.760;2.322;2023-03-05T00:42:54;20.23;;;10.80;;
56517;SDS011;42419;48.760;2.322;2023-03-05T00:45:19;23.10;;;11.77;;
56517;SDS011;42419;48.760;2.322;2023-03-05T00:47:44;19.83;;;11.43;;
56517;SDS011;42419;48.760;2.322;2023-03-05T00:50:10;16.40;;;9.80;;
56517;SDS011;42419;48.760;2.322;2023-03-05T00:52:35;17.93;;;11.20;;
56517;SDS011;42419;48.760;2.322;2023-03-05T00:55:00;17.20;;;10.50;;
56517;SDS011;42419;48.760;2.322;2023-03-05T00:57:26;14.73;;;9.83;;
56517;SDS011;42419;48.760;2.322;2023-03-05T00:59:51;19.57;;;10.47;;
56517;SDS011;42419;48.760;2.322;2023-03-05T01:02:16;19.57;;;10.57;;
56517;SDS011;42419;48.760;2.322;2023-03-05T01:04:42;12.13;;;9.03;;
56517;SDS011;42419;48.760;2.322;2023-03-05T01:07:10;17.63;;;10.23;;
56517;SDS011;42419;48.760;2.322;2023-03-05T01:09:36;17.40;;;9.40;;
56517;SDS011;42419;48.760;2.322;2023-03-05T01:12:01;17.40;;;10.53;;
56517;SDS011;42419;48.760;2.322;2023-03-05T01:14:26;16.20;;;9.00;;
56517;SDS011;42419;48.760;2.322;2023-03-05T01:16:52;14.77;;;8.33;;
56517;SDS011;42419;48.760;2.322;2023-03-05T01:19:18;17.50;;;9.30;;
56517;SDS011;42419;48.760;2.322;2023-03-05T01:21:43;16.33;;;9.07;;
56517;SDS011;42419;48.760;2.322;2023-03-05T01:24:08;13.67;;;8.90;;
56517;SDS011;42419;48.760;2.322;2023-03-05T01:26:34;11.77;;;7.90;;
56517;SDS011;42419;48.760;2.322;2023-03-05T01:28:59;12.00;;;7.80;;
56517;SDS011;42419;48.760;2.322;2023-03-05T01:31:25;13.57;;;8.20;;
56517;SDS011;42419;48.760;2.322;2023-03-05T01:33:51;13.70;;;7.53;;
56517;SDS011;42419;48.760;2.322;2023-03-05T01:36:17;14.47;;;7.73;;
56517;SDS011;42419;48.760;2.322;2023-03-05T01:38:43;11.03;;;7.17;;
56517;SDS011;42419;48.760;2.322;2023-03-05T01:41:11;12.37;;;7.37;;
56517;SDS011;42419;48.760;2.322;2023-03-05T01:43:37;10.10;;;6.80;;
56517;SDS011;42419;48.760;2.322;2023-03-05T01:48:57;11.37;;;7.67;;
56517;SDS011;42419;48.760;2.322;2023-03-05T01:51:24;9.80;;;6.27;;
56517;SDS011;42419;48.760;2.322;2023-03-05T01:53:53;11.30;;;7.80;;
56517;SDS011;42419;48.760;2.322;2023-03-05T01:56:22;10.33;;;6.57;;
56517;SDS011;42419;48.760;2.322;2023-03-05T01:58:48;9.00;;;6.70;;
56517;SDS011;42419;48.760;2.322;2023-03-05T02:01:14;11.77;;;7.07;;
56517;SDS011;42419;48.760;2.322;2023-03-05T02:03:41;9.27;;;6.30;;
56517;SDS011;42419;48.760;2.322;2023-03-05T02:06:06;8.83;;;6.23;;
56517;SDS011;42419;48.760;2.322;2023-03-05T02:08:32;8.63;;;6.40;;
56517;SDS011;42419;48.760;2.322;2023-03-05T02:10:57;8.40;;;5.97;;
56517;SDS011;42419;48.760;2.322;2023-03-05T02:13:34;10.50;;;6.80;;
56517;SDS011;42419;48.760;2.322;2023-03-05T02:16:02;10.33;;;6.30;;
56517;SDS011;42419;48.760;2.322;2023-03-05T02:18:28;7.77;;;6.37;;
56517;SDS011;42419;48.760;2.322;2023-03-05T02:23:26;7.17;;;5.40;;
56517;SDS011;42419;48.760;2.322;2023-03-05T02:25:53;10.43;;;6.23;;
56517;SDS011;42419;48.760;2.322;2023-03-05T02:28:23;7.90;;;5.27;;
56517;SDS011;42419;48.760;2.322;2023-03-05T02:31:14;8.17;;;5.43;;
56517;SDS011;42419;48.760;2.322;2023-03-05T02:33:42;7.07;;;5.33;;
56517;SDS011;42419;48.760;2.322;2023-03-05T02:36:07;7.10;;;5.17;;
56517;SDS011;42419;48.760;2.322;2023-03-05T02:38:33;7.57;;;4.90;;
56517;SDS011;42419;48.760;2.322;2023-03-05T02:40:58;7.17;;;5.23;;
56517;SDS011;42419;48.760;2.322;2023-03-05T02:43:24;6.70;;;5.00;;
56517;SDS011;42419;48.760;2.322;2023-03-05T02:45:50;7.23;;;5.93;;
56517;SDS011;42419;48.760;2.322;2023-03-05T02:48:15;5.43;;;4.30;;
56517;SDS011;42419;48.760;2.322;2023-03-05T02:50:41;6.60;;;5.13;;
56517;SDS011;42419;48.760;2.322;2023-03-05T02:53:07;5.10;;;4.37;;
56517;SDS011;42419;48.760;2.322;2023-03-05T02:55:33;6.20;;;4.73;;
56517;SDS011;42419;48.760;2.322;2023-03-05T02:57:58;6.87;;;5.30;;
56517;SDS011;42419;48.760;2.322;2023-03-05T03:00:24;5.83;;;4.50;;
56517;SDS011;42419;48.760;2.322;2023-03-05T03:02:50;5.33;;;4.10;;
56517;SDS011;42419;48.760;2.322;2023-03-05T03:05:16;6.50;;;4.90;;
56517;SDS011;42419;48.760;2.322;2023-03-05T03:07:41;5.87;;;4.53;;
56517;SDS011;42419;48.760;2.322;2023-03-05T03:10:07;5.50;;;4.53;;
56517;SDS011;42419;48.760;2.322;2023-03-05T03:12:37;5.60;;;4.60;;
56517;SDS011;42419;48.760;2.322;2023-03-05T03:15:03;7.90;;;4.80;;
56517;SDS011;42419;48.760;2.322;2023-03-05T03:17:28;5.37;;;4.83;;
56517;SDS011;42419;48.760;2.322;2023-03-05T03:19:54;5.30;;;3.73;;
56517;SDS011;42419;48.760;2.322;2023-03-05T03:22:19;7.10;;;4.53;;
56517;SDS011;42419;48.760;2.322;2023-03-05T03:24:44;5.13;;;4.50;;
56517;SDS011;42419;48.760;2.322;2023-03-05T03:27:10;4.40;;;3.93;;
56517;SDS011;42419;48.760;2.322;2023-03-05T03:29:35;4.23;;;3.80;;
56517;SDS011;42419;48.760;2.322;2023-03-05T03:32:01;6.10;;;4.53;;
56517;SDS011;42419;48.760;2.322;2023-03-05T03:34:26;6.50;;;4.47;;
56517;SDS011;42419;48.760;2.322;2023-03-05T03:36:52;5.53;;;4.13;;
56517;SDS011;42419;48.760;2.322;2023-03-05T03:39:18;4.30;;;3.70;;
56517;SDS011;42419;48.760;2.322;2023-03-05T03:41:45;5.47;;;3.90;;
56517;SDS011;42419;48.760;2.322;2023-03-05T03:44:12;4.97;;;4.13;;
56517;SDS011;42419;48.760;2.322;2023-03-05T03:46:41;4.67;;;3.87;;
56517;SDS011;42419;48.760;2.322;2023-03-05T03:49:10;4.20;;;3.80;;
56517;SDS011;42419;48.760;2.322;2023-03-05T03:51:40;4.20;;;3.60;;
56517;SDS011;42419;48.760;2.322;2023-03-05T03:54:05;4.37;;;3.93;;
56517;SDS011;42419;48.760;2.322;2023-03-05T03:56:30;4.57;;;4.00;;
56517;SDS011;42419;48.760;2.322;2023-03-05T03:58:56;5.77;;;4.77;;
56517;SDS011;42419;48.760;2.322;2023-03-05T04:01:21;4.80;;;3.50;;
56517;SDS011;42419;48.760;2.322;2023-03-05T04:03:46;4.93;;;3.97;;
56517;SDS011;42419;48.760;2.322;2023-03-05T04:06:12;4.37;;;3.60;;
56517;SDS011;42419;48.760;2.322;2023-03-05T04:08:38;4.20;;;3.67;;
56517;SDS011;42419;48.760;2.322;2023-03-05T04:11:04;4.73;;;4.17;;
56517;SDS011;42419;48.760;2.322;2023-03-05T04:13:29;4.27;;;3.53;;
56517;SDS011;42419;48.760;2.322;2023-03-05T04:15:54;4.10;;;3.60;;
56517;SDS011;42419;48.760;2.322;2023-03-05T04:18:20;3.70;;;3.30;;
56517;SDS011;42419;48.760;2.322;2023-03-05T04:20:45;4.23;;;3.80;;
56517;SDS011;42419;48.760;2.322;2023-03-05T04:23:11;4.03;;;3.60;;
56517;SDS011;42419;48.760;2.322;2023-03-05T04:25:36;3.77;;;3.33;;
56517;SDS011;42419;48.760;2.322;2023-03-05T04:28:01;3.73;;;3.40;;
56517;SDS011;42419;48.760;2.322;2023-03-05T04:30:27;3.90;;;3.60;;
56517;SDS011;42419;48.760;2.322;2023-03-05T04:32:52;4.17;;;3.43;;
56517;SDS011;42419;48.760;2.322;2023-03-05T04:35:18;3.93;;;3.43;;
56517;SDS011;42419;48.760;2.322;2023-03-05T04:37:43;3.87;;;3.33;;
56517;SDS011;42419;48.760;2.322;2023-03-05T04:40:09;3.77;;;3.47;;
56517;SDS011;42419;48.760;2.322;2023-03-05T04:42:35;3.80;;;3.30;;
56517;SDS011;42419;48.760;2.322;2023-03-05T04:45:01;3.80;;;3.43;;
56517;SDS011;42419;48.760;2.322;2023-03-05T04:47:26;4.10;;;3.67;;
56517;SDS011;42419;48.760;2.322;2023-03-05T04:49:52;3.10;;;2.80;;
56517;SDS011;42419;48.760;2.322;2023-03-05T04:52:17;3.20;;;2.90;;
56517;SDS011;42419;48.760;2.322;2023-03-05T04:54:43;3.73;;;3.10;;
56517;SDS011;42419;48.760;2.322;2023-03-05T04:57:09;3.70;;;3.30;;
56517;SDS011;42419;48.760;2.322;2023-03-05T04:59:35;3.40;;;3.10;;
56517;SDS011;42419;48.760;2.322;2023-03-05T05:02:01;4.90;;;3.30;;
56517;SDS011;42419;48.760;2.322;2023-03-05T05:04:26;3.70;;;2.80;;
56517;SDS011;42419;48.760;2.322;2023-03-05T05:06:53;3.20;;;2.90;;
56517;SDS011;42419;48.760;2.322;2023-03-05T05:09:22;3.53;;;2.90;;
56517;SDS011;42419;48.760;2.322;2023-03-05T05:11:49;3.17;;;2.87;;
56517;SDS011;42419;48.760;2.322;2023-03-05T05:14:14;3.87;;;3.13;;
56517;SDS011;42419;48.760;2.322;2023-03-05T05:16:40;4.17;;;3.07;;
56517;SDS011;42419;48.760;2.322;2023-03-05T05:19:05;3.77;;;2.80;;
56517;SDS011;42419;48.760;2.322;2023-03-05T05:21:32;3.80;;;2.83;;
56517;SDS011;42419;48.760;2.322;2023-03-05T05:23:58;3.00;;;2.80;;
56517;SDS011;42419;48.760;2.322;2023-03-05T05:26:23;3.07;;;2.80;;
56517;SDS011;42419;48.760;2.322;2023-03-05T05:28:48;2.63;;;2.43;;
56517;SDS011;42419;48.760;2.322;2023-03-05T05:31:14;3.50;;;3.20;;
56517;SDS011;42419;48.760;2.322;2023-03-05T05:33:42;2.90;;;2.60;;
56517;SDS011;42419;48.760;2.322;2023-03-05T05:36:07;2.57;;;2.37;;
56517;SDS011;42419;48.760;2.322;2023-03-05T05:38:36;3.10;;;2.60;;
56517;SDS011;42419;48.760;2.322;2023-03-05T05:41:05;3.00;;;2.80;;
56517;SDS011;42419;48.760;2.322;2023-03-05T05:43:32;3.90;;;3.20;;
56517;SDS011;42419;48.760;2.322;2023-03-05T05:45:59;4.00;;;3.10;;
56517;SDS011;42419;48.760;2.322;2023-03-05T05:48:26;2.80;;;2.60;;
56517;SDS011;42419;48.760;2.322;2023-03-05T05:50:52;2.40;;;2.20;;
56517;SDS011;42419;48.760;2.322;2023-03-05T05:53:18;3.93;;;2.90;;
56517;SDS011;42419;48.760;2.322;2023-03-05T05:55:43;3.50;;;2.80;;
56517;SDS011;42419;48.760;2.322;2023-03-05T05:58:08;3.10;;;2.57;;
56517;SDS011;42419;48.760;2.322;2023-03-05T06:00:34;3.17;;;2.87;;
56517;SDS011;42419;48.760;2.322;2023-03-05T06:02:59;3.03;;;2.77;;
56517;SDS011;42419;48.760;2.322;2023-03-05T06:05:24;2.93;;;2.70;;
56517;SDS011;42419;48.760;2.322;2023-03-05T06:07:50;3.00;;;2.70;;
56517;SDS011;42419;48.760;2.322;2023-03-05T06:10:15;2.70;;;2.50;;
56517;SDS011;42419;48.760;2.322;2023-03-05T06:12:40;2.60;;;2.40;;
56517;SDS011;42419;48.760;2.322;2023-03-05T06:15:06;2.50;;;2.30;;
56517;SDS011;42419;48.760;2.322;2023-03-05T06:17:32;3.27;;;2.97;;
56517;SDS011;42419;48.760;2.322;2023-03-05T06:19:57;3.93;;;2.93;;
56517;SDS011;42419;48.760;2.322;2023-03-05T06:22:23;2.63;;;2.43;;
56517;SDS011;42419;48.760;2.322;2023-03-05T06:24:48;2.63;;;2.43;;
56517;SDS011;42419;48.760;2.322;2023-03-05T06:27:13;2.70;;;2.50;;
56517;SDS011;42419;48.760;2.322;2023-03-05T06:29:38;3.00;;;2.30;;
56517;SDS011;42419;48.760;2.322;2023-03-05T06:32:04;2.90;;;2.50;;
56517;SDS011;42419;48.760;2.322;2023-03-05T06:34:29;3.07;;;2.53;;
56517;SDS011;42419;48.760;2.322;2023-03-05T06:36:54;2.93;;;2.70;;
56517;SDS011;42419;48.760;2.322;2023-03-05T06:39:20;4.60;;;2.67;;
56517;SDS011;42419;48.760;2.322;2023-03-05T06:41:48;3.37;;;2.53;;
56517;SDS011;42419;48.760;2.322;2023-03-05T06:44:15;3.03;;;2.73;;
56517;SDS011;42419;48.760;2.322;2023-03-05T06:46:41;2.67;;;2.47;;
56517;SDS011;42419;48.760;2.322;2023-03-05T06:49:06;4.93;;;2.50;;
56517;SDS011;42419;48.760;2.322;2023-03-05T06:51:34;3.10;;;2.80;;
56517;SDS011;42419;48.760;2.322;2023-03-05T06:54:05;2.67;;;2.30;;
56517;SDS011;42419;48.760;2.322;2023-03-05T06:56:36;2.40;;;2.20;;
56517;SDS011;42419;48.760;2.322;2023-03-05T06:59:02;3.10;;;2.90;;
56517;SDS011;42419;48.760;2.322;2023-03-05T07:01:28;3.17;;;2.50;;
56517;SDS011;42419;48.760;2.322;2023-03-05T07:03:53;2.87;;;2.60;;
56517;SDS011;42419;48.760;2.322;2023-03-05T07:06:20;2.90;;;2.50;;
56517;SDS011;42419;48.760;2.322;2023-03-05T07:08:46;2.43;;;2.23;;
56517;SDS011;42419;48.760;2.322;2023-03-05T07:11:14;3.40;;;2.30;;
56517;SDS011;42419;48.760;2.322;2023-03-05T07:13:41;2.10;;;2.00;;
56517;SDS011;42419;48.760;2.322;2023-03-05T07:16:08;2.30;;;2.10;;
56517;SDS011;42419;48.760;2.322;2023-03-05T07:18:37;2.43;;;2.23;;
56517;SDS011;42419;48.760;2.322;2023-03-05T07:21:03;2.53;;;2.30;;
56517;SDS011;42419;48.760;2.322;2023-03-05T07:23:30;2.27;;;1.90;;
56517;SDS011;42419;48.760;2.322;2023-03-05T07:25:55;3.00;;;2.57;;
56517;SDS011;42419;48.760;2.322;2023-03-05T07:28:21;2.60;;;2.40;;
56517;SDS011;42419;48.760;2.322;2023-03-05T07:30:53;4.23;;;2.27;;
56517;SDS011;42419;48.760;2.322;2023-03-05T07:33:22;2.47;;;2.27;;
56517;SDS011;42419;48.760;2.322;2023-03-05T07:35:48;2.83;;;1.83;;
56517;SDS011;42419;48.760;2.322;2023-03-05T07:38:14;2.10;;;1.90;;
56517;SDS011;42419;48.760;2.322;2023-03-05T07:40:39;2.90;;;2.40;;
56517;SDS011;42419;48.760;2.322;2023-03-05T07:43:04;2.90;;;2.70;;
56517;SDS011;42419;48.760;2.322;2023-03-05T07:45:30;4.67;;;2.20;;
56517;SDS011;42419;48.760;2.322;2023-03-05T07:47:56;3.17;;;2.87;;
56517;SDS011;42419;48.760;2.322;2023-03-05T07:50:21;2.63;;;2.37;;
56517;SDS011;42419;48.760;2.322;2023-03-05T07:52:47;2.40;;;2.20;;
56517;SDS011;42419;48.760;2.322;2023-03-05T07:55:12;2.43;;;2.17;;
56517;SDS011;42419;48.760;2.322;2023-03-05T07:57:37;2.80;;;2.50;;
56517;SDS011;42419;48.760;2.322;2023-03-05T08:00:04;2.23;;;2.03;;
56517;SDS011;42419;48.760;2.322;2023-03-05T08:02:30;2.27;;;1.93;;
56517;SDS011;42419;48.760;2.322;2023-03-05T08:04:55;2.53;;;2.33;;
56517;SDS011;42419;48.760;2.322;2023-03-05T08:07:21;3.03;;;2.60;;
56517;SDS011;42419;48.760;2.322;2023-03-05T08:09:46;2.50;;;2.30;;
56517;SDS011;42419;48.760;2.322;2023-03-05T08:12:11;2.77;;;2.57;;
56517;SDS011;42419;48.760;2.322;2023-03-05T08:14:37;2.80;;;2.40;;
56517;SDS011;42419;48.760;2.322;2023-03-05T08:17:03;2.30;;;2.07;;
56517;SDS011;42419;48.760;2.322;2023-03-05T08:19:29;2.27;;;2.17;;
56517;SDS011;42419;48.760;2.322;2023-03-05T08:21:54;2.60;;;2.40;;
56517;SDS011;42419;48.760;2.322;2023-03-05T08:24:19;2.30;;;2.10;;
56517;SDS011;42419;48.760;2.322;2023-03-05T08:26:46;2.43;;;2.23;;
56517;SDS011;42419;48.760;2.322;2023-03-05T08:29:11;2.40;;;2.10;;
56517;SDS011;42419;48.760;2.322;2023-03-05T08:31:37;2.43;;;2.23;;
56517;SDS011;42419;48.760;2.322;2023-03-05T08:34:03;2.70;;;2.50;;
56517;SDS011;42419;48.760;2.322;2023-03-05T08:36:29;2.33;;;2.13;;
56517;SDS011;42419;48.760;2.322;2023-03-05T08:38:54;2.50;;;2.30;;
56517;SDS011;42419;48.760;2.322;2023-03-05T08:41:20;2.70;;;2.10;;
56517;SDS011;42419;48.760;2.322;2023-03-05T08:43:46;3.37;;;2.40;;
56517;SDS011;42419;48.760;2.322;2023-03-05T08:46:12;2.53;;;2.30;;
56517;SDS011;42419;48.760;2.322;2023-03-05T08:48:38;2.40;;;2.20;;
56517;SDS011;42419;48.760;2.322;2023-03-05T08:51:04;2.40;;;2.17;;
56517;SDS011;42419;48.760;2.322;2023-03-05T08:53:34;4.17;;;2.77;;
56517;SDS011;42419;48.760;2.322;2023-03-05T08:55:59;2.80;;;2.60;;
56517;SDS011;42419;48.760;2.322;2023-03-05T08:58:25;2.33;;;2.13;;
56517;SDS011;42419;48.760;2.322;2023-03-05T09:00:50;2.60;;;2.03;;
56517;SDS011;42419;48.760;2.322;2023-03-05T09:03:16;4.17;;;2.77;;
56517;SDS011;42419;48.760;2.322;2023-03-05T09:05:41;2.67;;;2.47;;
56517;SDS011;42419;48.760;2.322;2023-03-05T09:08:07;3.50;;;2.73;;
56517;SDS011;42419;48.760;2.322;2023-03-05T09:10:32;2.90;;;2.03;;
56517;SDS011;42419;48.760;2.322;2023-03-05T09:12:57;2.40;;;2.20;;
56517;SDS011;42419;48.760;2.322;2023-03-05T09:15:22;3.40;;;2.50;;
56517;SDS011;42419;48.760;2.322;2023-03-05T09:17:48;3.60;;;2.87;;
56517;SDS011;42419;48.760;2.322;2023-03-05T09:20:13;2.50;;;2.30;;
56517;SDS011;42419;48.760;2.322;2023-03-05T09:22:39;3.47;;;2.50;;
56517;SDS011;42419;48.760;2.322;2023-03-05T09:25:05;5.73;;;2.27;;
56517;SDS011;42419;48.760;2.322;2023-03-05T09:27:35;2.67;;;2.17;;
56517;SDS011;42419;48.760;2.322;2023-03-05T09:30:01;3.23;;;2.93;;
56517;SDS011;42419;48.760;2.322;2023-03-05T09:32:28;3.40;;;2.37;;
56517;SDS011;42419;48.760;2.322;2023-03-05T09:34:54;3.13;;;2.40;;
56517;SDS011;42419;48.760;2.322;2023-03-05T09:37:19;2.63;;;2.43;;
56517;SDS011;42419;48.760;2.322;2023-03-05T09:39:44;2.17;;;1.97;;
56517;SDS011;42419;48.760;2.322;2023-03-05T09:50:58;2.80;;;2.10;;
56517;SDS011;42419;48.760;2.322;2023-03-05T09:56:18;2.40;;;2.20;;
56517;SDS011;42419;48.760;2.322;2023-03-05T09:58:58;2.80;;;2.60;;
56517;SDS011;42419;48.760;2.322;2023-03-05T10:01:29;3.90;;;3.03;;
56517;SDS011;42419;48.760;2.322;2023-03-05T10:04:13;3.63;;;2.90;;
56517;SDS011;42419;48.760;2.322;2023-03-05T10:06:59;3.53;;;2.73;;
56517;SDS011;42419;48.760;2.322;2023-03-05T10:09:45;3.33;;;2.67;;
56517;SDS011;42419;48.760;2.322;2023-03-05T10:12:26;5.33;;;2.63;;
56517;SDS011;42419;48.760;2.322;2023-03-05T10:25:55;3.70;;;2.57;;
56517;SDS011;42419;48.760;2.322;2023-03-05T10:28:42;3.03;;;2.40;;
56517;SDS011;42419;48.760;2.322;2023-03-05T10:31:32;2.70;;;2.50;;
56517;SDS011;42419;48.760;2.322;2023-03-05T10:34:21;3.73;;;2.60;;
56517;SDS011;42419;48.760;2.322;2023-03-05T10:37:19;3.40;;;3.10;;
56517;SDS011;42419;48.760;2.322;2023-03-05T10:40:09;2.57;;;2.37;;
56517;SDS011;42419;48.760;2.322;2023-03-05T10:45:28;2.80;;;2.57;;
56517;SDS011;42419;48.760;2.322;2023-03-05T10:48:02;3.70;;;2.73;;
56517;SDS011;42419;48.760;2.322;2023-03-05T10:50:45;2.77;;;2.57;;
56517;SDS011;42419;48.760;2.322;2023-03-05T10:55:50;4.37;;;3.37;;
56517;SDS011;42419;48.760;2.322;2023-03-05T10:58:20;3.87;;;2.87;;
56517;SDS011;42419;48.760;2.322;2023-03-05T11:04:02;3.03;;;2.73;;
56517;SDS011;42419;48.760;2.322;2023-03-05T11:11:43;4.07;;;3.07;;
56517;SDS011;42419;48.760;2.322;2023-03-05T11:14:29;3.00;;;2.70;;
56517;SDS011;42419;48.760;2.322;2023-03-05T11:16:57;2.83;;;2.63;;
56517;SDS011;42419;48.760;2.322;2023-03-05T11:19:24;2.73;;;2.50;;
56517;SDS011;42419;48.760;2.322;2023-03-05T11:27:50;2.80;;;2.60;;
56517;SDS011;42419;48.760;2.322;2023-03-05T11:33:06;2.53;;;2.27;;
56517;SDS011;42419;48.760;2.322;2023-03-05T11:35:40;3.80;;;2.40;;
56517;SDS011;42419;48.760;2.322;2023-03-05T11:38:14;2.80;;;2.60;;
56517;SDS011;42419;48.760;2.322;2023-03-05T11:40:48;2.60;;;2.40;;
56517;SDS011;42419;48.760;2.322;2023-03-05T11:43:19;2.60;;;2.40;;
56517;SDS011;42419;48.760;2.322;2023-03-05T11:45:52;3.00;;;2.70;;
56517;SDS011;42419;48.760;2.322;2023-03-05T11:48:26;2.77;;;2.47;;
56517;SDS011;42419;48.760;2.322;2023-03-05T11:50:56;3.10;;;2.77;;
56517;SDS011;42419;48.760;2.322;2023-03-05T11:53:24;3.03;;;2.43;;
56517;SDS011;42419;48.760;2.322;2023-03-05T11:55:58;3.40;;;2.90;;
56517;SDS011;42419;48.760;2.322;2023-03-05T11:58:49;3.17;;;2.57;;
56517;SDS011;42419;48.760;2.322;2023-03-05T12:01:26;3.23;;;2.67;;
56517;SDS011;42419;48.760;2.322;2023-03-05T12:03:54;7.43;;;2.80;;
56517;SDS011;42419;48.760;2.322;2023-03-05T12:09:14;4.00;;;2.70;;
56517;SDS011;42419;48.760;2.322;2023-03-05T12:14:57;3.03;;;2.50;;
56517;SDS011;42419;48.760;2.322;2023-03-05T12:17:30;3.40;;;2.50;;
56517;SDS011;42419;48.760;2.322;2023-03-05T12:22:38;5.40;;;3.17;;
56517;SDS011;42419;48.760;2.322;2023-03-05T12:26:06;4.67;;;3.23;;
56517;SDS011;42419;48.760;2.322;2023-03-05T12:28:15;4.70;;;2.83;;
56517;SDS011;42419;48.760;2.322;2023-03-05T12:31:43;5.37;;;2.90;;
56517;SDS011;42419;48.760;2.322;2023-03-05T12:33:51;6.50;;;2.70;;
56517;SDS011;42419;48.760;2.322;2023-03-05T12:38:48;7.60;;;3.00;;
56517;SDS011;42419;48.760;2.322;2023-03-05T12:44:13;3.50;;;3.20;;
56517;SDS011;42419;48.760;2.322;2023-03-05T12:46:42;11.10;;;3.43;;
56517;SDS011;42419;48.760;2.322;2023-03-05T12:49:28;3.00;;;2.70;;
56517;SDS011;42419;48.760;2.322;2023-03-05T12:52:04;3.07;;;2.77;;
56517;SDS011;42419;48.760;2.322;2023-03-05T12:54:46;3.23;;;2.83;;
56517;SDS011;42419;48.760;2.322;2023-03-05T12:57:25;3.57;;;3.10;;
56517;SDS011;42419;48.760;2.322;2023-03-05T13:00:09;3.03;;;2.73;;
56517;SDS011;42419;48.760;2.322;2023-03-05T13:02:45;3.93;;;2.87;;
56517;SDS011;42419;48.760;2.322;2023-03-05T13:05:19;3.90;;;2.70;;
56517;SDS011;42419;48.760;2.322;2023-03-05T13:07:48;3.90;;;2.70;;
56517;SDS011;42419;48.760;2.322;2023-03-05T13:10:21;3.37;;;3.00;;
56517;SDS011;42419;48.760;2.322;2023-03-05T13:12:53;3.17;;;2.87;;
56517;SDS011;42419;48.760;2.322;2023-03-05T13:15:21;6.27;;;2.93;;
56517;SDS011;42419;48.760;2.322;2023-03-05T13:17:55;4.23;;;3.03;;
56517;SDS011;42419;48.760;2.322;2023-03-05T13:20:38;4.03;;;3.30;;
56517;SDS011;42419;48.760;2.322;2023-03-05T13:25:42;5.37;;;3.53;;
56517;SDS011;42419;48.760;2.322;2023-03-05T13:28:29;3.97;;;3.07;;
56517;SDS011;42419;48.760;2.322;2023-03-05T13:31:03;4.47;;;3.27;;
56517;SDS011;42419;48.760;2.322;2023-03-05T13:33:37;3.20;;;2.90;;
56517;SDS011;42419;48.760;2.322;2023-03-05T13:36:03;4.50;;;3.57;;
56517;SDS011;42419;48.760;2.322;2023-03-05T13:38:33;3.13;;;2.83;;
56517;SDS011;42419;48.760;2.322;2023-03-05T13:41:04;6.33;;;3.73;;
56517;SDS011;42419;48.760;2.322;2023-03-05T13:43:30;4.10;;;3.00;;
56517;SDS011;42419;48.760;2.322;2023-03-05T13:45:55;3.23;;;3.00;;
56517;SDS011;42419;48.760;2.322;2023-03-05T13:48:22;3.97;;;3.00;;
56517;SDS011;42419;48.760;2.322;2023-03-05T13:50:52;4.40;;;3.13;;
56517;SDS011;42419;48.760;2.322;2023-03-05T13:53:24;4.57;;;3.00;;
56517;SDS011;42419;48.760;2.322;2023-03-05T13:55:53;4.43;;;3.37;;
56517;SDS011;42419;48.760;2.322;2023-03-05T14:03:47;3.27;;;2.97;;
56517;SDS011;42419;48.760;2.322;2023-03-05T14:06:14;2.67;;;2.47;;
56517;SDS011;42419;48.760;2.322;2023-03-05T14:08:52;2.70;;;2.50;;
56517;SDS011;42419;48.760;2.322;2023-03-05T14:11:21;3.33;;;3.03;;
56517;SDS011;42419;48.760;2.322;2023-03-05T14:13:47;4.20;;;3.27;;
56517;SDS011;42419;48.760;2.322;2023-03-05T14:16:14;2.80;;;2.50;;
56517;SDS011;42419;48.760;2.322;2023-03-05T14:18:53;3.63;;;3.30;;
56517;SDS011;42419;48.760;2.322;2023-03-05T14:21:21;3.57;;;3.27;;
56517;SDS011;42419;48.760;2.322;2023-03-05T14:23:47;4.30;;;3.40;;
56517;SDS011;42419;48.760;2.322;2023-03-05T14:28:50;4.30;;;3.27;;
56517;SDS011;42419;48.760;2.322;2023-03-05T14:31:18;3.70;;;3.40;;
56517;SDS011;42419;48.760;2.322;2023-03-05T14:33:44;3.73;;;3.30;;
56517;SDS011;42419;48.760;2.322;2023-03-05T14:36:10;3.53;;;3.23;;
56517;SDS011;42419;48.760;2.322;2023-03-05T14:38:40;4.00;;;3.07;;
56517;SDS011;42419;48.760;2.322;2023-03-05T14:44:10;4.80;;;3.23;;
56517;SDS011;42419;48.760;2.322;2023-03-05T14:46:37;3.93;;;3.53;;
56517;SDS011;42419;48.760;2.322;2023-03-05T14:49:02;3.53;;;2.93;;
56517;SDS011;42419;48.760;2.322;2023-03-05T14:51:28;3.50;;;3.20;;
56517;SDS011;42419;48.760;2.322;2023-03-05T14:53:53;3.53;;;3.23;;
56517;SDS011;42419;48.760;2.322;2023-03-05T14:56:23;4.33;;;3.30;;
56517;SDS011;42419;48.760;2.322;2023-03-05T14:58:51;4.50;;;3.03;;
56517;SDS011;42419;48.760;2.322;2023-03-05T15:01:16;3.30;;;3.00;;
56517;SDS011;42419;48.760;2.322;2023-03-05T15:03:42;3.07;;;2.77;;
56517;SDS011;42419;48.760;2.322;2023-03-05T15:06:17;3.27;;;2.83;;
56517;SDS011;42419;48.760;2.322;2023-03-05T15:08:46;3.83;;;3.30;;
56517;SDS011;42419;48.760;2.322;2023-03-05T15:11:11;3.33;;;2.77;;
56517;SDS011;42419;48.760;2.322;2023-03-05T15:13:37;3.37;;;2.80;;
56517;SDS011;42419;48.760;2.322;2023-03-05T15:16:03;3.70;;;3.07;;
56517;SDS011;42419;48.760;2.322;2023-03-05T15:18:29;3.17;;;2.87;;
56517;SDS011;42419;48.760;2.322;2023-03-05T15:20:55;3.43;;;3.13;;
56517;SDS011;42419;48.760;2.322;2023-03-05T15:23:21;2.70;;;2.50;;
56517;SDS011;42419;48.760;2.322;2023-03-05T15:25:47;3.27;;;2.97;;
56517;SDS011;42419;48.760;2.322;2023-03-05T15:28:13;2.80;;;2.60;;
56517;SDS011;42419;48.760;2.322;2023-03-05T15:30:40;3.00;;;2.80;;
56517;SDS011;42419;48.760;2.322;2023-03-05T15:33:09;3.43;;;3.13;;
56517;SDS011;42419;48.760;2.322;2023-03-05T15:35:36;3.50;;;3.20;;
56517;SDS011;42419;48.760;2.322;2023-03-05T15:38:01;3.07;;;2.87;;
56517;SDS011;42419;48.760;2.322;2023-03-05T15:40:27;3.47;;;3.17;;
56517;SDS011;42419;48.760;2.322;2023-03-05T15:42:53;3.33;;;3.03;;
56517;SDS011;42419;48.760;2.322;2023-03-05T15:45:19;3.10;;;2.70;;
56517;SDS011;42419;48.760;2.322;2023-03-05T15:47:47;3.60;;;2.70;;
56517;SDS011;42419;48.760;2.322;2023-03-05T15:50:12;4.23;;;3.17;;
56517;SDS011;42419;48.760;2.322;2023-03-05T15:52:38;2.87;;;2.67;;
56517;SDS011;42419;48.760;2.322;2023-03-05T15:55:03;3.20;;;2.90;;
56517;SDS011;42419;48.760;2.322;2023-03-05T15:57:29;2.80;;;2.60;;
56517;SDS011;42419;48.760;2.322;2023-03-05T16:00:00;2.67;;;2.47;;
56517;SDS011;42419;48.760;2.322;2023-03-05T16:02:25;2.57;;;2.37;;
56517;SDS011;42419;48.760;2.322;2023-03-05T16:04:51;2.63;;;2.43;;
56517;SDS011;42419;48.760;2.322;2023-03-05T16:07:16;3.30;;;3.00;;
56517;SDS011;42419;48.760;2.322;2023-03-05T16:09:43;3.00;;;2.80;;